Oshkosh, Wisconsin
Current Conditions -  °F | °C
As of 6:53 PM on Saturday 25 Oct 2014 (Local Time) from KOSH Reporting Station
Clear Clear  
Wind Chill: 54°   Ceiling: Unl
Heat Index: 54°   Visibility: 10mi
Dew Point: 32°   Wind: 7mph
Humidity: 43%   Direction: 280°W
Pressure: 29.9"   Gusts: NA
Location:  44.03°N, 88.54°W
Report Text: KOSH 252353Z 28006KT 10SM CLR 12/00 A2990 RMK AO2 SLP126 T01220000 10178 20122 53014
Loading
Personal Weather Stations






























Interactive Weather Map
Tropical Storm Tracking
New forecast layout! Learn more

10-Day Weather Forecast

Advertisements
Track Severe Weather on mobile